sensor_id;sensor_type;location;lat;lon;timestamp;temperature;humidity
20380;DHT22;10349;48.666;8.948;2022-12-05T00:03:56;1.10;99.90
20380;DHT22;10349;48.666;8.948;2022-12-05T00:06:24;1.10;99.90
20380;DHT22;10349;48.666;8.948;2022-12-05T00:08:50;1.10;99.90
20380;DHT22;10349;48.666;8.948;2022-12-05T00:11:18;1.10;99.90
20380;DHT22;10349;48.666;8.948;2022-12-05T00:13:45;1.10;99.90
20380;DHT22;10349;48.666;8.948;2022-12-05T00:16:16;1.10;99.90
20380;DHT22;10349;48.666;8.948;2022-12-05T00:18:42;1.10;99.90
20380;DHT22;10349;48.666;8.948;2022-12-05T00:21:13;1.20;99.90
20380;DHT22;10349;48.666;8.948;2022-12-05T00:23:39;1.20;99.90
20380;DHT22;10349;48.666;8.948;2022-12-05T00:26:05;1.20;99.90
20380;DHT22;10349;48.666;8.948;2022-12-05T00:28:32;1.20;99.90
20380;DHT22;10349;48.666;8.948;2022-12-05T00:31:05;1.30;99.90
20380;DHT22;10349;48.666;8.948;2022-12-05T00:33:31;1.30;99.90
20380;DHT22;10349;48.666;8.948;2022-12-05T00:36:04;1.30;99.90
20380;DHT22;10349;48.666;8.948;2022-12-05T00:38:30;1.30;99.90
20380;DHT22;10349;48.666;8.948;2022-12-05T00:41:00;1.20;99.90
20380;DHT22;10349;48.666;8.948;2022-12-05T00:43:26;1.20;99.90
20380;DHT22;10349;48.666;8.948;2022-12-05T00:45:51;1.20;99.90
20380;DHT22;10349;48.666;8.948;2022-12-05T00:48:17;1.20;99.90
20380;DHT22;10349;48.666;8.948;2022-12-05T00:50:43;1.20;99.90
20380;DHT22;10349;48.666;8.948;2022-12-05T00:53:08;1.20;99.90
20380;DHT22;10349;48.666;8.948;2022-12-05T00:55:36;1.20;99.90
20380;DHT22;10349;48.666;8.948;2022-12-05T00:58:02;1.20;99.90
20380;DHT22;10349;48.666;8.948;2022-12-05T01:00:28;1.20;99.90
20380;DHT22;10349;48.666;8.948;2022-12-05T01:02:54;1.10;99.90
20380;DHT22;10349;48.666;8.948;2022-12-05T01:05:20;1.10;99.90
20380;DHT22;10349;48.666;8.948;2022-12-05T01:07:46;1.00;99.90
20380;DHT22;10349;48.666;8.948;2022-12-05T01:10:11;1.00;99.90
20380;DHT22;10349;48.666;8.948;2022-12-05T01:12:38;1.00;99.90
20380;DHT22;10349;48.666;8.948;2022-12-05T01:15:04;1.10;99.90
20380;DHT22;10349;48.666;8.948;2022-12-05T01:17:30;1.10;99.90
20380;DHT22;10349;48.666;8.948;2022-12-05T01:19:56;1.10;99.90
20380;DHT22;10349;48.666;8.948;2022-12-05T01:22:21;1.10;99.90
20380;DHT22;10349;48.666;8.948;2022-12-05T01:24:47;1.10;99.90
20380;DHT22;10349;48.666;8.948;2022-12-05T01:27:12;1.20;99.90
20380;DHT22;10349;48.666;8.948;2022-12-05T01:29:38;1.20;99.90
20380;DHT22;10349;48.666;8.948;2022-12-05T01:32:04;1.20;99.90
20380;DHT22;10349;48.666;8.948;2022-12-05T01:34:30;1.10;99.90
20380;DHT22;10349;48.666;8.948;2022-12-05T01:36:55;1.10;99.90
20380;DHT22;10349;48.666;8.948;2022-12-05T01:39:21;1.20;99.90
20380;DHT22;10349;48.666;8.948;2022-12-05T01:41:48;1.20;99.90
20380;DHT22;10349;48.666;8.948;2022-12-05T01:46:49;1.20;99.90
20380;DHT22;10349;48.666;8.948;2022-12-05T01:49:37;1.10;99.90
20380;DHT22;10349;48.666;8.948;2022-12-05T01:52:07;1.10;99.90
20380;DHT22;10349;48.666;8.948;2022-12-05T01:54:36;1.10;99.90
20380;DHT22;10349;48.666;8.948;2022-12-05T01:57:05;1.20;99.90
20380;DHT22;10349;48.666;8.948;2022-12-05T01:59:35;1.20;99.90
20380;DHT22;10349;48.666;8.948;2022-12-05T02:02:02;1.30;99.90
20380;DHT22;10349;48.666;8.948;2022-12-05T02:04:28;1.30;99.90
20380;DHT22;10349;48.666;8.948;2022-12-05T02:06:54;1.30;99.90
20380;DHT22;10349;48.666;8.948;2022-12-05T02:09:21;1.30;99.90
20380;DHT22;10349;48.666;8.948;2022-12-05T02:12:01;1.30;99.90
20380;DHT22;10349;48.666;8.948;2022-12-05T02:14:53;1.40;99.90
20380;DHT22;10349;48.666;8.948;2022-12-05T02:17:23;1.40;99.90
20380;DHT22;10349;48.666;8.948;2022-12-05T02:20:07;1.40;99.90
20380;DHT22;10349;48.666;8.948;2022-12-05T02:31:29;1.50;99.90
20380;DHT22;10349;48.666;8.948;2022-12-05T02:34:38;1.40;99.90
20380;DHT22;10349;48.666;8.948;2022-12-05T02:37:13;1.40;99.90
20380;DHT22;10349;48.666;8.948;2022-12-05T02:39:55;1.40;99.90
20380;DHT22;10349;48.666;8.948;2022-12-05T02:42:47;1.40;99.90
20380;DHT22;10349;48.666;8.948;2022-12-05T02:45:16;1.40;99.90
20380;DHT22;10349;48.666;8.948;2022-12-05T02:47:51;1.40;99.90
20380;DHT22;10349;48.666;8.948;2022-12-05T02:50:21;1.40;99.90
20380;DHT22;10349;48.666;8.948;2022-12-05T02:52:48;1.40;99.90
20380;DHT22;10349;48.666;8.948;2022-12-05T02:55:16;1.50;99.90
20380;DHT22;10349;48.666;8.948;2022-12-05T02:57:45;1.50;99.90
20380;DHT22;10349;48.666;8.948;2022-12-05T03:00:14;1.50;99.90
20380;DHT22;10349;48.666;8.948;2022-12-05T03:02:39;1.50;99.90
20380;DHT22;10349;48.666;8.948;2022-12-05T03:05:31;1.50;99.90
20380;DHT22;10349;48.666;8.948;2022-12-05T03:08:01;1.60;99.90
20380;DHT22;10349;48.666;8.948;2022-12-05T03:10:32;1.60;99.90
20380;DHT22;10349;48.666;8.948;2022-12-05T03:13:03;1.60;99.90
20380;DHT22;10349;48.666;8.948;2022-12-05T03:15:34;1.60;99.90
20380;DHT22;10349;48.666;8.948;2022-12-05T03:18:07;1.70;99.90
20380;DHT22;10349;48.666;8.948;2022-12-05T03:21:02;1.60;99.90
20380;DHT22;10349;48.666;8.948;2022-12-05T03:23:33;1.60;99.90
20380;DHT22;10349;48.666;8.948;2022-12-05T03:26:05;1.60;99.90
20380;DHT22;10349;48.666;8.948;2022-12-05T03:31:12;1.70;99.90
20380;DHT22;10349;48.666;8.948;2022-12-05T03:33:44;1.70;99.90
20380;DHT22;10349;48.666;8.948;2022-12-05T03:36:14;1.70;99.90
20380;DHT22;10349;48.666;8.948;2022-12-05T03:39:22;1.80;99.90
20380;DHT22;10349;48.666;8.948;2022-12-05T03:44:30;1.70;99.90
20380;DHT22;10349;48.666;8.948;2022-12-05T03:47:00;1.70;99.90
20380;DHT22;10349;48.666;8.948;2022-12-05T03:49:44;1.70;99.90
20380;DHT22;10349;48.666;8.948;2022-12-05T03:54:41;1.70;99.90
20380;DHT22;10349;48.666;8.948;2022-12-05T03:57:23;1.70;99.90
20380;DHT22;10349;48.666;8.948;2022-12-05T04:02:53;1.70;99.90
20380;DHT22;10349;48.666;8.948;2022-12-05T04:07:55;1.70;99.90
20380;DHT22;10349;48.666;8.948;2022-12-05T04:10:28;1.70;99.90
20380;DHT22;10349;48.666;8.948;2022-12-05T04:12:56;1.70;99.90
20380;DHT22;10349;48.666;8.948;2022-12-05T04:15:28;1.80;99.90
20380;DHT22;10349;48.666;8.948;2022-12-05T04:18:19;1.80;99.90
20380;DHT22;10349;48.666;8.948;2022-12-05T04:20:47;1.80;99.90
20380;DHT22;10349;48.666;8.948;2022-12-05T04:23:32;1.70;99.90
20380;DHT22;10349;48.666;8.948;2022-12-05T04:26:20;1.70;99.90
20380;DHT22;10349;48.666;8.948;2022-12-05T04:28:54;1.70;99.90
20380;DHT22;10349;48.666;8.948;2022-12-05T04:31:24;1.70;99.90
20380;DHT22;10349;48.666;8.948;2022-12-05T04:33:56;1.70;99.90
20380;DHT22;10349;48.666;8.948;2022-12-05T04:36:44;1.70;99.90
20380;DHT22;10349;48.666;8.948;2022-12-05T04:39:28;1.70;99.90
20380;DHT22;10349;48.666;8.948;2022-12-05T04:41:57;1.70;99.90
20380;DHT22;10349;48.666;8.948;2022-12-05T04:44:28;1.70;99.90
20380;DHT22;10349;48.666;8.948;2022-12-05T04:46:56;1.70;99.90
20380;DHT22;10349;48.666;8.948;2022-12-05T04:49:26;1.60;99.90
20380;DHT22;10349;48.666;8.948;2022-12-05T04:51:58;1.60;99.90
20380;DHT22;10349;48.666;8.948;2022-12-05T04:54:31;1.60;99.90
20380;DHT22;10349;48.666;8.948;2022-12-05T04:57:06;1.60;99.90
20380;DHT22;10349;48.666;8.948;2022-12-05T04:59:34;1.60;99.90
20380;DHT22;10349;48.666;8.948;2022-12-05T05:02:07;1.60;99.90
20380;DHT22;10349;48.666;8.948;2022-12-05T05:04:37;1.50;99.90
20380;DHT22;10349;48.666;8.948;2022-12-05T05:07:06;1.50;99.90
20380;DHT22;10349;48.666;8.948;2022-12-05T05:09:32;1.50;99.90
20380;DHT22;10349;48.666;8.948;2022-12-05T05:11:58;1.60;99.90
20380;DHT22;10349;48.666;8.948;2022-12-05T05:14:24;1.60;99.90
20380;DHT22;10349;48.666;8.948;2022-12-05T05:16:50;1.60;99.90
20380;DHT22;10349;48.666;8.948;2022-12-05T05:19:15;1.60;99.90
20380;DHT22;10349;48.666;8.948;2022-12-05T05:21:41;1.60;99.90
20380;DHT22;10349;48.666;8.948;2022-12-05T05:24:09;1.70;99.90
20380;DHT22;10349;48.666;8.948;2022-12-05T05:26:38;1.70;99.90
20380;DHT22;10349;48.666;8.948;2022-12-05T05:29:04;1.70;99.90
20380;DHT22;10349;48.666;8.948;2022-12-05T05:31:30;1.70;99.90
20380;DHT22;10349;48.666;8.948;2022-12-05T05:33:56;1.70;99.90
20380;DHT22;10349;48.666;8.948;2022-12-05T05:36:25;1.70;99.90
20380;DHT22;10349;48.666;8.948;2022-12-05T05:38:57;1.70;99.90
20380;DHT22;10349;48.666;8.948;2022-12-05T05:41:24;1.80;99.90
20380;DHT22;10349;48.666;8.948;2022-12-05T05:43:50;1.80;99.90
20380;DHT22;10349;48.666;8.948;2022-12-05T05:46:18;1.80;99.90
20380;DHT22;10349;48.666;8.948;2022-12-05T05:48:44;1.80;99.90
20380;DHT22;10349;48.666;8.948;2022-12-05T05:51:11;1.80;99.90
20380;DHT22;10349;48.666;8.948;2022-12-05T05:53:37;1.80;99.90
20380;DHT22;10349;48.666;8.948;2022-12-05T05:56:08;1.80;99.90
20380;DHT22;10349;48.666;8.948;2022-12-05T05:58:34;1.80;99.90
20380;DHT22;10349;48.666;8.948;2022-12-05T06:01:12;1.90;99.90
20380;DHT22;10349;48.666;8.948;2022-12-05T06:03:38;1.90;99.90
20380;DHT22;10349;48.666;8.948;2022-12-05T06:06:06;1.90;99.90
20380;DHT22;10349;48.666;8.948;2022-12-05T06:08:34;1.80;99.90
20380;DHT22;10349;48.666;8.948;2022-12-05T06:11:05;1.80;99.90
20380;DHT22;10349;48.666;8.948;2022-12-05T06:13:31;1.80;99.90
20380;DHT22;10349;48.666;8.948;2022-12-05T06:15:56;1.80;99.90
20380;DHT22;10349;48.666;8.948;2022-12-05T06:18:22;1.80;99.90
20380;DHT22;10349;48.666;8.948;2022-12-05T06:20:53;1.80;99.90
20380;DHT22;10349;48.666;8.948;2022-12-05T06:23:18;1.80;99.90
20380;DHT22;10349;48.666;8.948;2022-12-05T06:25:48;1.80;99.90
20380;DHT22;10349;48.666;8.948;2022-12-05T06:28:15;1.80;99.90
20380;DHT22;10349;48.666;8.948;2022-12-05T06:30:41;1.80;99.90
20380;DHT22;10349;48.666;8.948;2022-12-05T06:33:06;1.80;99.90
20380;DHT22;10349;48.666;8.948;2022-12-05T06:35:32;1.80;99.90
20380;DHT22;10349;48.666;8.948;2022-12-05T06:37:58;1.80;99.90
20380;DHT22;10349;48.666;8.948;2022-12-05T06:40:23;1.90;99.90
20380;DHT22;10349;48.666;8.948;2022-12-05T06:42:49;1.90;99.90
20380;DHT22;10349;48.666;8.948;2022-12-05T06:45:15;1.90;99.90
20380;DHT22;10349;48.666;8.948;2022-12-05T06:47:41;1.90;99.90
20380;DHT22;10349;48.666;8.948;2022-12-05T06:50:07;1.90;99.90
20380;DHT22;10349;48.666;8.948;2022-12-05T06:52:33;1.90;99.90
20380;DHT22;10349;48.666;8.948;2022-12-05T06:54:58;2.00;99.90
20380;DHT22;10349;48.666;8.948;2022-12-05T06:57:24;2.10;99.90
20380;DHT22;10349;48.666;8.948;2022-12-05T06:59:50;2.00;99.90
20380;DHT22;10349;48.666;8.948;2022-12-05T07:02:16;2.00;99.90
20380;DHT22;10349;48.666;8.948;2022-12-05T07:04:41;2.00;99.90
20380;DHT22;10349;48.666;8.948;2022-12-05T07:07:07;2.00;99.90
20380;DHT22;10349;48.666;8.948;2022-12-05T07:09:33;1.90;99.90
20380;DHT22;10349;48.666;8.948;2022-12-05T07:12:29;2.00;99.90
20380;DHT22;10349;48.666;8.948;2022-12-05T07:14:57;1.90;99.90
20380;DHT22;10349;48.666;8.948;2022-12-05T07:17:22;1.90;99.90
20380;DHT22;10349;48.666;8.948;2022-12-05T07:19:49;1.90;99.90
20380;DHT22;10349;48.666;8.948;2022-12-05T07:22:16;2.00;99.90
20380;DHT22;10349;48.666;8.948;2022-12-05T07:24:43;2.00;99.90
20380;DHT22;10349;48.666;8.948;2022-12-05T07:27:09;2.00;99.90
20380;DHT22;10349;48.666;8.948;2022-12-05T07:29:35;2.00;99.90
20380;DHT22;10349;48.666;8.948;2022-12-05T07:32:00;2.10;99.90
20380;DHT22;10349;48.666;8.948;2022-12-05T07:34:26;2.10;99.90
20380;DHT22;10349;48.666;8.948;2022-12-05T07:36:52;2.20;99.90
20380;DHT22;10349;48.666;8.948;2022-12-05T07:39:17;2.20;99.90
20380;DHT22;10349;48.666;8.948;2022-12-05T07:41:43;2.30;99.90
20380;DHT22;10349;48.666;8.948;2022-12-05T07:44:14;2.30;99.90
20380;DHT22;10349;48.666;8.948;2022-12-05T07:46:40;2.40;99.90
20380;DHT22;10349;48.666;8.948;2022-12-05T07:49:06;2.40;99.90
20380;DHT22;10349;48.666;8.948;2022-12-05T07:51:32;2.40;99.90
20380;DHT22;10349;48.666;8.948;2022-12-05T07:53:58;2.40;99.90
20380;DHT22;10349;48.666;8.948;2022-12-05T07:56:26;2.40;99.90
20380;DHT22;10349;48.666;8.948;2022-12-05T07:58:52;2.50;99.90
20380;DHT22;10349;48.666;8.948;2022-12-05T08:01:23;2.50;99.90
20380;DHT22;10349;48.666;8.948;2022-12-05T08:03:51;2.50;99.90
20380;DHT22;10349;48.666;8.948;2022-12-05T08:06:19;2.60;99.90
20380;DHT22;10349;48.666;8.948;2022-12-05T08:08:46;2.60;99.90
20380;DHT22;10349;48.666;8.948;2022-12-05T08:11:21;2.60;99.90
20380;DHT22;10349;48.666;8.948;2022-12-05T08:13:49;2.70;99.90
20380;DHT22;10349;48.666;8.948;2022-12-05T08:16:18;2.70;99.90
20380;DHT22;10349;48.666;8.948;2022-12-05T08:18:45;2.70;99.90
20380;DHT22;10349;48.666;8.948;2022-12-05T08:21:13;2.80;99.90
20380;DHT22;10349;48.666;8.948;2022-12-05T08:23:40;2.80;99.90
20380;DHT22;10349;48.666;8.948;2022-12-05T08:28:36;2.90;99.90
20380;DHT22;10349;48.666;8.948;2022-12-05T08:31:08;2.90;99.90
20380;DHT22;10349;48.666;8.948;2022-12-05T08:33:34;2.90;99.90
20380;DHT22;10349;48.666;8.948;2022-12-05T08:36:05;3.00;99.90
20380;DHT22;10349;48.666;8.948;2022-12-05T08:38:31;3.00;99.90
20380;DHT22;10349;48.666;8.948;2022-12-05T08:41:00;3.00;99.90
20380;DHT22;10349;48.666;8.948;2022-12-05T08:43:28;3.10;99.90
20380;DHT22;10349;48.666;8.948;2022-12-05T08:45:53;3.10;99.90
20380;DHT22;10349;48.666;8.948;2022-12-05T08:48:19;3.10;99.90
20380;DHT22;10349;48.666;8.948;2022-12-05T08:50:45;3.20;99.90
20380;DHT22;10349;48.666;8.948;2022-12-05T08:53:11;3.20;99.90
20380;DHT22;10349;48.666;8.948;2022-12-05T08:55:37;3.30;99.90
20380;DHT22;10349;48.666;8.948;2022-12-05T08:58:03;3.40;99.90
20380;DHT22;10349;48.666;8.948;2022-12-05T09:00:29;3.40;99.90
20380;DHT22;10349;48.666;8.948;2022-12-05T09:02:56;3.50;99.90
20380;DHT22;10349;48.666;8.948;2022-12-05T09:05:22;3.50;99.90
20380;DHT22;10349;48.666;8.948;2022-12-05T09:07:48;3.50;99.90
20380;DHT22;10349;48.666;8.948;2022-12-05T09:10:14;3.60;99.90
20380;DHT22;10349;48.666;8.948;2022-12-05T09:12:39;3.60;99.90
20380;DHT22;10349;48.666;8.948;2022-12-05T09:15:07;3.60;99.90
20380;DHT22;10349;48.666;8.948;2022-12-05T09:17:33;3.70;99.90
20380;DHT22;10349;48.666;8.948;2022-12-05T09:19:59;3.70;99.90
20380;DHT22;10349;48.666;8.948;2022-12-05T09:22:25;3.70;99.90
20380;DHT22;10349;48.666;8.948;2022-12-05T09:24:50;3.70;99.90
20380;DHT22;10349;48.666;8.948;2022-12-05T09:27:16;3.70;99.90
20380;DHT22;10349;48.666;8.948;2022-12-05T09:29:42;3.70;99.90
20380;DHT22;10349;48.666;8.948;2022-12-05T09:32:09;3.70;99.90
20380;DHT22;10349;48.666;8.948;2022-12-05T09:34:36;3.70;99.90
20380;DHT22;10349;48.666;8.948;2022-12-05T09:37:03;3.70;99.90
20380;DHT22;10349;48.666;8.948;2022-12-05T09:39:29;3.70;99.90
20380;DHT22;10349;48.666;8.948;2022-12-05T09:45:20;3.70;99.90
20380;DHT22;10349;48.666;8.948;2022-12-05T09:47:59;3.70;99.90
20380;DHT22;10349;48.666;8.948;2022-12-05T09:50:34;3.70;99.90
20380;DHT22;10349;48.666;8.948;2022-12-05T09:55:47;3.70;99.90
20380;DHT22;10349;48.666;8.948;2022-12-05T09:58:51;3.70;99.90
20380;DHT22;10349;48.666;8.948;2022-12-05T10:01:38;3.70;99.90
20380;DHT22;10349;48.666;8.948;2022-12-05T10:10:01;3.80;99.90
20380;DHT22;10349;48.666;8.948;2022-12-05T10:13:13;3.80;99.90
20380;DHT22;10349;48.666;8.948;2022-12-05T10:15:50;3.80;99.90
20380;DHT22;10349;48.666;8.948;2022-12-05T10:18:24;3.80;99.90
20380;DHT22;10349;48.666;8.948;2022-12-05T10:23:28;3.90;99.90
20380;DHT22;10349;48.666;8.948;2022-12-05T10:26:00;3.90;99.90
20380;DHT22;10349;48.666;8.948;2022-12-05T10:28:47;4.00;99.90
20380;DHT22;10349;48.666;8.948;2022-12-05T10:31:18;4.00;99.90
20380;DHT22;10349;48.666;8.948;2022-12-05T10:33:55;4.10;99.90
20380;DHT22;10349;48.666;8.948;2022-12-05T10:36:24;4.10;99.90
20380;DHT22;10349;48.666;8.948;2022-12-05T10:38:49;4.20;99.90
20380;DHT22;10349;48.666;8.948;2022-12-05T10:41:16;4.20;99.90
20380;DHT22;10349;48.666;8.948;2022-12-05T10:43:43;4.30;99.90
20380;DHT22;10349;48.666;8.948;2022-12-05T10:46:11;4.30;99.90
20380;DHT22;10349;48.666;8.948;2022-12-05T10:48:39;4.30;99.90
20380;DHT22;10349;48.666;8.948;2022-12-05T10:51:06;4.30;99.90
20380;DHT22;10349;48.666;8.948;2022-12-05T10:53:46;4.40;99.90
20380;DHT22;10349;48.666;8.948;2022-12-05T10:56:38;4.40;99.90
20380;DHT22;10349;48.666;8.948;2022-12-05T10:59:06;4.40;99.90
20380;DHT22;10349;48.666;8.948;2022-12-05T11:01:33;4.40;99.90
20380;DHT22;10349;48.666;8.948;2022-12-05T11:04:08;4.40;99.90
20380;DHT22;10349;48.666;8.948;2022-12-05T11:06:35;4.30;99.90
20380;DHT22;10349;48.666;8.948;2022-12-05T11:09:16;4.40;99.90
20380;DHT22;10349;48.666;8.948;2022-12-05T11:12:17;4.40;99.90
20380;DHT22;10349;48.666;8.948;2022-12-05T11:15:03;4.40;99.90
20380;DHT22;10349;48.666;8.948;2022-12-05T11:17:36;4.60;99.90
20380;DHT22;10349;48.666;8.948;2022-12-05T11:22:50;4.80;99.90
20380;DHT22;10349;48.666;8.948;2022-12-05T11:25:32;4.80;99.90
20380;DHT22;10349;48.666;8.948;2022-12-05T11:33:26;5.00;99.90
20380;DHT22;10349;48.666;8.948;2022-12-05T11:35:54;5.00;99.90
20380;DHT22;10349;48.666;8.948;2022-12-05T11:38:25;5.00;99.90
20380;DHT22;10349;48.666;8.948;2022-12-05T11:46:32;5.10;99.90
20380;DHT22;10349;48.666;8.948;2022-12-05T11:52:28;5.30;99.90
20380;DHT22;10349;48.666;8.948;2022-12-05T11:55:15;5.30;99.90
20380;DHT22;10349;48.666;8.948;2022-12-05T12:01:08;5.30;99.90
20380;DHT22;10349;48.666;8.948;2022-12-05T12:06:47;5.40;99.90
20380;DHT22;10349;48.666;8.948;2022-12-05T12:09:49;5.40;99.90
20380;DHT22;10349;48.666;8.948;2022-12-05T12:12:27;5.50;99.90
20380;DHT22;10349;48.666;8.948;2022-12-05T12:17:48;5.50;99.90
20380;DHT22;10349;48.666;8.948;2022-12-05T12:27:03;5.60;99.90
20380;DHT22;10349;48.666;8.948;2022-12-05T12:32:32;5.80;99.90
20380;DHT22;10349;48.666;8.948;2022-12-05T12:35:25;5.80;99.90
20380;DHT22;10349;48.666;8.948;2022-12-05T12:40:30;5.60;99.90
20380;DHT22;10349;48.666;8.948;2022-12-05T12:51:22;5.50;99.90
20380;DHT22;10349;48.666;8.948;2022-12-05T12:56:41;5.40;99.90
20380;DHT22;10349;48.666;8.948;2022-12-05T13:04:52;5.30;99.90
20380;DHT22;10349;48.666;8.948;2022-12-05T13:07:28;5.20;99.90
20380;DHT22;10349;48.666;8.948;2022-12-05T13:10:02;5.30;99.90
20380;DHT22;10349;48.666;8.948;2022-12-05T13:12:34;5.20;99.90
20380;DHT22;10349;48.666;8.948;2022-12-05T13:15:12;5.30;99.90
20380;DHT22;10349;48.666;8.948;2022-12-05T13:17:40;5.20;99.90
20380;DHT22;10349;48.666;8.948;2022-12-05T13:20:17;5.20;99.90
20380;DHT22;10349;48.666;8.948;2022-12-05T13:22:45;5.30;99.90
20380;DHT22;10349;48.666;8.948;2022-12-05T13:25:16;5.40;99.90
20380;DHT22;10349;48.666;8.948;2022-12-05T13:28:05;5.30;99.90
20380;DHT22;10349;48.666;8.948;2022-12-05T13:30:33;5.40;99.90
20380;DHT22;10349;48.666;8.948;2022-12-05T13:33:25;5.30;99.90
20380;DHT22;10349;48.666;8.948;2022-12-05T13:36:04;5.40;99.90
20380;DHT22;10349;48.666;8.948;2022-12-05T13:38:58;5.30;99.90
20380;DHT22;10349;48.666;8.948;2022-12-05T13:41:46;5.30;99.90
20380;DHT22;10349;48.666;8.948;2022-12-05T13:44:44;5.30;99.90
20380;DHT22;10349;48.666;8.948;2022-12-05T13:47:25;5.30;99.90
20380;DHT22;10349;48.666;8.948;2022-12-05T13:50:20;5.30;99.90
20380;DHT22;10349;48.666;8.948;2022-12-05T13:52:55;5.30;99.90
20380;DHT22;10349;48.666;8.948;2022-12-05T13:55:35;5.30;99.90
20380;DHT22;10349;48.666;8.948;2022-12-05T14:00:46;5.30;99.90
20380;DHT22;10349;48.666;8.948;2022-12-05T14:03:53;5.30;99.90
20380;DHT22;10349;48.666;8.948;2022-12-05T14:06:02;5.30;99.90
20380;DHT22;10349;48.666;8.948;2022-12-05T14:19:19;5.30;99.90
20380;DHT22;10349;48.666;8.948;2022-12-05T14:21:52;5.30;99.90
20380;DHT22;10349;48.666;8.948;2022-12-05T14:24:34;5.30;99.90
20380;DHT22;10349;48.666;8.948;2022-12-05T14:27:28;5.40;99.90
20380;DHT22;10349;48.666;8.948;2022-12-05T14:32:54;5.30;99.90
20380;DHT22;10349;48.666;8.948;2022-12-05T14:37:58;5.30;99.90
20380;DHT22;10349;48.666;8.948;2022-12-05T14:40:36;5.20;99.90
20380;DHT22;10349;48.666;8.948;2022-12-05T14:43:06;5.20;99.90
20380;DHT22;10349;48.666;8.948;2022-12-05T14:45:39;5.20;99.90
20380;DHT22;10349;48.666;8.948;2022-12-05T14:50:39;5.10;99.90
20380;DHT22;10349;48.666;8.948;2022-12-05T14:53:34;5.10;99.90
20380;DHT22;10349;48.666;8.948;2022-12-05T14:56:22;5.10;99.90
20380;DHT22;10349;48.666;8.948;2022-12-05T14:58:56;5.10;99.90
20380;DHT22;10349;48.666;8.948;2022-12-05T15:01:44;5.00;99.90
20380;DHT22;10349;48.666;8.948;2022-12-05T15:07:03;5.00;99.90
20380;DHT22;10349;48.666;8.948;2022-12-05T15:09:32;5.00;99.90
20380;DHT22;10349;48.666;8.948;2022-12-05T15:12:01;5.00;99.90
20380;DHT22;10349;48.666;8.948;2022-12-05T15:14:31;4.90;99.90
20380;DHT22;10349;48.666;8.948;2022-12-05T15:17:00;4.90;99.90
20380;DHT22;10349;48.666;8.948;2022-12-05T15:19:30;4.80;99.90
20380;DHT22;10349;48.666;8.948;2022-12-05T15:21:59;4.80;99.90
20380;DHT22;10349;48.666;8.948;2022-12-05T15:24:26;4.80;99.90
20380;DHT22;10349;48.666;8.948;2022-12-05T15:26:52;4.70;99.90
20380;DHT22;10349;48.666;8.948;2022-12-05T15:31:50;4.70;99.90
20380;DHT22;10349;48.666;8.948;2022-12-05T15:34:27;4.60;99.90
20380;DHT22;10349;48.666;8.948;2022-12-05T15:39:58;4.60;99.90
20380;DHT22;10349;48.666;8.948;2022-12-05T15:45:19;4.50;99.90
20380;DHT22;10349;48.666;8.948;2022-12-05T15:55:58;4.50;99.90
20380;DHT22;10349;48.666;8.948;2022-12-05T16:01:13;4.40;99.90
20380;DHT22;10349;48.666;8.948;2022-12-05T16:03:48;4.40;99.90
20380;DHT22;10349;48.666;8.948;2022-12-05T16:06:36;4.40;99.90
20380;DHT22;10349;48.666;8.948;2022-12-05T16:09:08;4.40;99.90
20380;DHT22;10349;48.666;8.948;2022-12-05T16:11:38;4.40;99.90
20380;DHT22;10349;48.666;8.948;2022-12-05T16:14:05;4.40;99.90
20380;DHT22;10349;48.666;8.948;2022-12-05T16:16:34;4.40;99.90
20380;DHT22;10349;48.666;8.948;2022-12-05T16:19:15;4.40;99.90
20380;DHT22;10349;48.666;8.948;2022-12-05T16:21:47;4.40;99.90
20380;DHT22;10349;48.666;8.948;2022-12-05T16:24:28;4.30;99.90
20380;DHT22;10349;48.666;8.948;2022-12-05T16:27:02;4.40;99.90
20380;DHT22;10349;48.666;8.948;2022-12-05T16:29:33;4.40;99.90
20380;DHT22;10349;48.666;8.948;2022-12-05T16:32:22;4.30;99.90
20380;DHT22;10349;48.666;8.948;2022-12-05T16:34:49;4.30;99.90
20380;DHT22;10349;48.666;8.948;2022-12-05T16:37:26;4.30;99.90
20380;DHT22;10349;48.666;8.948;2022-12-05T16:39:52;4.30;99.90
20380;DHT22;10349;48.666;8.948;2022-12-05T16:42:29;4.40;99.90
20380;DHT22;10349;48.666;8.948;2022-12-05T16:44:59;4.40;99.90
20380;DHT22;10349;48.666;8.948;2022-12-05T16:47:51;4.40;99.90
20380;DHT22;10349;48.666;8.948;2022-12-05T16:50:33;4.40;99.90
20380;DHT22;10349;48.666;8.948;2022-12-05T16:55:39;4.40;99.90
20380;DHT22;10349;48.666;8.948;2022-12-05T16:58:10;4.50;99.90
20380;DHT22;10349;48.666;8.948;2022-12-05T17:00:38;4.50;99.90
20380;DHT22;10349;48.666;8.948;2022-12-05T17:03:04;4.50;99.90
20380;DHT22;10349;48.666;8.948;2022-12-05T17:05:29;4.50;99.90
20380;DHT22;10349;48.666;8.948;2022-12-05T17:07:55;4.60;99.90
20380;DHT22;10349;48.666;8.948;2022-12-05T17:10:21;4.60;99.90
20380;DHT22;10349;48.666;8.948;2022-12-05T17:12:47;4.50;99.90
20380;DHT22;10349;48.666;8.948;2022-12-05T17:15:17;4.50;99.90
20380;DHT22;10349;48.666;8.948;2022-12-05T17:17:43;4.50;99.90
20380;DHT22;10349;48.666;8.948;2022-12-05T17:20:11;4.60;99.90
20380;DHT22;10349;48.666;8.948;2022-12-05T17:22:41;4.50;99.90
20380;DHT22;10349;48.666;8.948;2022-12-05T17:25:30;4.50;99.90
20380;DHT22;10349;48.666;8.948;2022-12-05T17:28:01;4.50;99.90
20380;DHT22;10349;48.666;8.948;2022-12-05T17:30:27;4.50;99.90
20380;DHT22;10349;48.666;8.948;2022-12-05T17:32:52;4.40;99.90
20380;DHT22;10349;48.666;8.948;2022-12-05T17:35:20;4.40;99.90
20380;DHT22;10349;48.666;8.948;2022-12-05T17:37:47;4.40;99.90
20380;DHT22;10349;48.666;8.948;2022-12-05T17:40:13;4.50;99.90
20380;DHT22;10349;48.666;8.948;2022-12-05T17:42:39;4.40;99.90
20380;DHT22;10349;48.666;8.948;2022-12-05T17:45:10;4.40;99.90
20380;DHT22;10349;48.666;8.948;2022-12-05T17:47:36;4.40;99.90
20380;DHT22;10349;48.666;8.948;2022-12-05T17:50:03;4.40;99.90
20380;DHT22;10349;48.666;8.948;2022-12-05T17:52:28;4.40;99.90
20380;DHT22;10349;48.666;8.948;2022-12-05T17:54:54;4.30;99.90
20380;DHT22;10349;48.666;8.948;2022-12-05T17:57:20;4.40;99.90
20380;DHT22;10349;48.666;8.948;2022-12-05T17:59:45;4.30;99.90
20380;DHT22;10349;48.666;8.948;2022-12-05T18:02:11;4.30;99.90
20380;DHT22;10349;48.666;8.948;2022-12-05T18:04:37;4.30;99.90
20380;DHT22;10349;48.666;8.948;2022-12-05T18:07:03;4.30;99.90
20380;DHT22;10349;48.666;8.948;2022-12-05T18:09:29;4.30;99.90
20380;DHT22;10349;48.666;8.948;2022-12-05T18:11:55;4.20;99.90
20380;DHT22;10349;48.666;8.948;2022-12-05T18:14:21;4.30;99.90
20380;DHT22;10349;48.666;8.948;2022-12-05T18:16:47;4.10;99.90
20380;DHT22;10349;48.666;8.948;2022-12-05T18:19:13;4.10;99.90
20380;DHT22;10349;48.666;8.948;2022-12-05T18:21:39;4.10;99.90
20380;DHT22;10349;48.666;8.948;2022-12-05T18:24:05;4.10;99.90
20380;DHT22;10349;48.666;8.948;2022-12-05T18:26:30;4.10;99.90
20380;DHT22;10349;48.666;8.948;2022-12-05T18:28:56;4.10;99.90
20380;DHT22;10349;48.666;8.948;2022-12-05T18:31:24;4.10;99.90
20380;DHT22;10349;48.666;8.948;2022-12-05T18:33:50;4.20;99.90
20380;DHT22;10349;48.666;8.948;2022-12-05T18:36:18;4.30;99.90